Terminal Aerodrome Forecast
Issued by NWS

Home | Current Version | Previous Version | Text Only | Print | Product List | Glossary On
Versions: 1 2 3 4 5 6 7 8 9 10 11 12 13
030
FTUS45 KTFX 300520
TAFBZN
TAF
KBZN 300520Z 3006/3106 VRB06KT P6SM VCSH SCT040 OVC060
      TEMPO 3006/3010 6SM -SHRA BR BKN025
     FM301000 26007KT 6SM -SHRA BR SCT015 OVC025
      TEMPO 3010/3014 4SM RASN BR OVC015
     FM301400 34006KT P6SM -SHRASN BKN025
     FM302000 31006KT P6SM SCT030 BKN050=

USA.gov is the U.S. government's official web portal to all federal, state and local government web resources and services.